createdAt,value
2018-12-18T00:02:06.161Z,75.52
2018-12-18T00:04:35.396Z,74.80
2018-12-18T00:07:04.647Z,74.83
2018-12-18T00:09:33.910Z,74.66
2018-12-18T00:12:03.179Z,75.38
2018-12-18T00:14:32.470Z,75.30
2018-12-18T00:17:01.781Z,75.21
2018-12-18T00:19:30.996Z,75.17
2018-12-18T00:22:03.001Z,75.48
2018-12-18T00:24:32.248Z,75.71
2018-12-18T00:27:01.422Z,75.62
2018-12-18T00:29:30.666Z,75.75
2018-12-18T00:31:59.899Z,75.28
2018-12-18T00:34:29.221Z,76.02
2018-12-18T00:36:58.432Z,76.42
2018-12-18T00:39:27.686Z,76.14
2018-12-18T00:41:58.193Z,76.06
2018-12-18T00:44:27.435Z,76.46
2018-12-18T00:46:56.690Z,76.18
2018-12-18T00:49:25.919Z,76.24
2018-12-18T00:51:55.093Z,76.02
2018-12-18T00:54:24.318Z,75.60
2018-12-18T00:56:53.620Z,75.90
2018-12-18T00:59:22.876Z,76.62
2018-12-18T01:02:00.033Z,76.88
2018-12-18T01:04:29.503Z,77.07
2018-12-18T01:06:58.732Z,76.99
2018-12-18T01:09:27.980Z,77.86
2018-12-18T01:11:57.142Z,77.38
2018-12-18T01:14:26.399Z,77.73
2018-12-18T01:16:55.661Z,77.86
2018-12-18T01:19:24.880Z,77.85
2018-12-18T01:21:54.121Z,77.79
2018-12-18T01:24:23.582Z,77.01
2018-12-18T01:26:52.845Z,76.60
2018-12-18T01:29:22.061Z,77.77
2018-12-18T01:31:51.268Z,77.91
2018-12-18T01:34:20.721Z,77.63
2018-12-18T01:36:49.902Z,78.22
2018-12-18T01:39:19.109Z,78.13
2018-12-18T01:41:48.384Z,77.87
2018-12-18T01:44:17.888Z,77.73
2018-12-18T01:46:47.108Z,77.73
2018-12-18T01:49:16.622Z,78.44
2018-12-18T01:51:45.838Z,78.03
2018-12-18T01:54:15.918Z,78.29
2018-12-18T01:56:45.181Z,79.03
2018-12-18T01:59:15.105Z,79.08
2018-12-18T02:01:44.348Z,79.01
2018-12-18T02:04:13.562Z,79.19
2018-12-18T02:06:42.823Z,78.37
2018-12-18T02:09:12.050Z,77.82
2018-12-18T02:11:41.325Z,77.63
2018-12-18T02:14:10.522Z,77.65
2018-12-18T02:16:39.758Z,77.30
2018-12-18T02:19:10.141Z,77.22
2018-12-18T02:21:40.906Z,77.45
2018-12-18T02:24:10.080Z,77.54
2018-12-18T02:26:39.309Z,76.78
2018-12-18T02:29:08.537Z,76.22
2018-12-18T02:31:37.826Z,76.45
2018-12-18T02:34:13.495Z,75.90
2018-12-18T02:36:36.205Z,76.22
2018-12-18T02:39:07.074Z,75.58
2018-12-18T02:41:36.313Z,76.57
2018-12-18T02:44:05.509Z,76.42
2018-12-18T02:46:34.736Z,77.11
2018-12-18T02:49:03.973Z,76.84
2018-12-18T02:51:33.325Z,76.18
2018-12-18T02:54:02.515Z,76.54
2018-12-18T02:56:31.710Z,75.61
2018-12-18T02:59:00.951Z,76.08
2018-12-18T03:01:30.175Z,75.69
2018-12-18T03:03:59.419Z,75.96
2018-12-18T03:06:28.666Z,76.69
2018-12-18T03:08:57.901Z,75.93
2018-12-18T03:11:27.052Z,76.65
2018-12-18T03:13:56.323Z,76.01
2018-12-18T03:16:25.553Z,76.88
2018-12-18T03:18:54.799Z,76.96
2018-12-18T03:21:23.996Z,77.49
2018-12-18T03:23:53.236Z,77.15
2018-12-18T03:26:22.465Z,76.70
2018-12-18T03:28:51.735Z,77.56
2018-12-18T03:31:20.948Z,78.11
2018-12-18T03:33:50.208Z,77.69
2018-12-18T03:36:19.360Z,78.24
2018-12-18T03:38:48.558Z,78.99
2018-12-18T03:41:18.026Z,79.06
2018-12-18T03:43:47.245Z,79.31
2018-12-18T03:46:16.472Z,79.93
2018-12-18T03:48:45.704Z,79.40
2018-12-18T03:51:15.531Z,79.82
2018-12-18T03:53:44.732Z,80.28
2018-12-18T03:56:14.990Z,80.12
2018-12-18T03:58:44.374Z,79.87
2018-12-18T04:01:14.175Z,80.20
2018-12-18T04:03:43.669Z,79.88
2018-12-18T04:06:13.547Z,80.40
2018-12-18T04:08:42.754Z,80.39
2018-12-18T04:11:12.587Z,80.25
2018-12-18T04:13:41.790Z,79.61
2018-12-18T04:16:11.002Z,79.48
2018-12-18T04:18:40.274Z,79.56
2018-12-18T04:21:09.512Z,79.28
2018-12-18T04:23:38.691Z,78.92
2018-12-18T04:26:07.932Z,79.20
2018-12-18T04:28:37.148Z,79.21
2018-12-18T04:31:06.356Z,79.43
2018-12-18T04:33:35.586Z,79.03
2018-12-18T04:36:05.018Z,79.17
2018-12-18T04:38:34.211Z,79.29
2018-12-18T04:41:03.445Z,79.24
2018-12-18T04:43:32.643Z,78.88
2018-12-18T04:46:01.815Z,79.32
2018-12-18T04:48:30.981Z,78.97
2018-12-18T04:51:00.240Z,79.04
2018-12-18T04:53:29.391Z,78.70
2018-12-18T04:55:58.634Z,78.94
2018-12-18T04:58:27.804Z,78.91
2018-12-18T05:00:57.087Z,78.53
2018-12-18T05:03:26.299Z,78.34
2018-12-18T05:05:55.490Z,77.96
2018-12-18T05:08:24.767Z,77.96
2018-12-18T05:10:54.000Z,77.49
2018-12-18T05:13:23.262Z,77.32
2018-12-18T05:15:52.435Z,78.03
2018-12-18T05:18:21.696Z,77.75
2018-12-18T05:20:50.929Z,77.82
2018-12-18T05:23:20.109Z,76.98
2018-12-18T05:25:49.342Z,77.74
2018-12-18T05:28:18.554Z,78.15
2018-12-18T05:30:47.759Z,77.99
2018-12-18T05:33:17.633Z,77.48
2018-12-18T05:35:46.851Z,77.40
2018-12-18T05:38:16.313Z,77.49
2018-12-18T05:40:45.477Z,77.22
2018-12-18T05:43:15.217Z,77.53
2018-12-18T05:45:44.492Z,77.30
2018-12-18T05:48:13.870Z,77.35
2018-12-18T05:50:43.089Z,78.54
2018-12-18T05:53:12.584Z,78.28
2018-12-18T05:55:42.105Z,78.03
2018-12-18T05:58:13.211Z,78.21
2018-12-18T06:00:42.480Z,77.55
2018-12-18T06:03:11.713Z,77.43
2018-12-18T06:05:40.989Z,78.05
2018-12-18T06:08:10.217Z,77.45
2018-12-18T06:10:39.443Z,77.20
2018-12-18T06:13:08.726Z,76.95
2018-12-18T06:15:37.955Z,76.79
2018-12-18T06:18:07.177Z,76.73
2018-12-18T06:20:36.375Z,77.20
2018-12-18T06:23:05.580Z,77.19
2018-12-18T06:25:34.782Z,76.60
2018-12-18T06:28:04.000Z,77.15
2018-12-18T06:30:33.248Z,77.16
2018-12-18T06:33:02.507Z,77.37
2018-12-18T06:35:32.733Z,76.88
2018-12-18T06:38:03.486Z,76.37
2018-12-18T06:40:32.725Z,76.94
2018-12-18T06:43:01.993Z,77.39
2018-12-18T06:45:31.229Z,77.62
2018-12-18T06:48:00.490Z,77.71
2018-12-18T06:50:29.769Z,77.42
2018-12-18T06:52:58.992Z,77.50
2018-12-18T06:55:28.219Z,77.07
2018-12-18T06:57:57.460Z,77.12
2018-12-18T07:00:26.763Z,76.04
2018-12-18T07:02:55.966Z,75.68
2018-12-18T07:05:25.291Z,75.69
2018-12-18T07:07:57.465Z,75.55
2018-12-18T07:10:23.709Z,76.73
2018-12-18T07:12:52.908Z,76.03
2018-12-18T07:15:22.171Z,75.79
2018-12-18T07:17:51.454Z,75.97
2018-12-18T07:20:20.636Z,76.15
2018-12-18T07:22:49.898Z,75.96
2018-12-18T07:25:19.121Z,75.59
2018-12-18T07:27:48.331Z,76.07
2018-12-18T07:30:17.667Z,75.84
2018-12-18T07:32:47.258Z,75.64
2018-12-18T07:35:23.022Z,75.15
2018-12-18T07:37:45.757Z,74.95
2018-12-18T07:40:15.040Z,75.06
2018-12-18T07:42:44.391Z,75.07
2018-12-18T07:45:13.619Z,74.96
2018-12-18T07:47:42.845Z,74.76
2018-12-18T07:50:12.715Z,74.28
2018-12-18T07:52:41.949Z,74.63
2018-12-18T07:55:12.819Z,75.80
2018-12-18T07:57:42.023Z,76.38
2018-12-18T08:00:12.285Z,76.53
2018-12-18T08:02:41.574Z,79.71
2018-12-18T08:05:13.130Z,75.76
2018-12-18T08:07:42.387Z,74.84
2018-12-18T08:10:12.237Z,73.83
2018-12-18T08:12:41.495Z,73.87
2018-12-18T08:15:13.003Z,74.19
2018-12-18T08:17:42.421Z,73.12
2018-12-18T08:20:12.410Z,72.56
2018-12-18T08:25:52.388Z,72.86
2018-12-18T08:28:21.706Z,72.18
2018-12-18T08:30:51.240Z,70.02
2018-12-18T08:33:21.545Z,69.25
2018-12-18T08:35:50.882Z,69.63
2018-12-18T08:38:20.084Z,70.01
2018-12-18T08:40:52.503Z,69.52
2018-12-18T08:43:21.797Z,68.68
2018-12-18T08:45:53.972Z,69.56
2018-12-18T08:48:25.449Z,69.51
2018-12-18T08:50:56.038Z,71.69
2018-12-18T08:53:26.263Z,72.03
2018-12-18T08:55:55.677Z,71.72
2018-12-18T08:58:24.906Z,72.85
2018-12-18T09:00:54.932Z,73.39
2018-12-18T09:03:24.164Z,73.25
2018-12-18T09:05:53.387Z,70.40
2018-12-18T09:08:22.643Z,68.78
2018-12-18T09:10:51.909Z,69.40
2018-12-18T09:13:21.353Z,71.34
2018-12-18T09:15:57.621Z,71.74
2018-12-18T09:18:27.055Z,69.86
2018-12-18T09:20:56.256Z,69.09
2018-12-18T09:23:25.505Z,69.07
2018-12-18T09:25:54.770Z,67.79
2018-12-18T09:28:24.038Z,67.95
2018-12-18T09:30:53.238Z,68.29
2018-12-18T09:33:22.509Z,68.27
2018-12-18T09:35:51.739Z,68.51
2018-12-18T09:38:26.280Z,69.90
2018-12-18T09:41:00.651Z,69.59
2018-12-18T09:43:35.165Z,68.47
2018-12-18T09:46:04.436Z,67.80
2018-12-18T09:48:33.703Z,66.57
2018-12-18T09:51:02.906Z,65.84
2018-12-18T09:53:32.125Z,65.31
2018-12-18T09:56:01.324Z,65.11
2018-12-18T09:58:30.516Z,65.18
2018-12-18T10:00:59.712Z,65.96
2018-12-18T10:03:33.512Z,66.17
2018-12-18T10:05:58.181Z,67.61
2018-12-18T10:08:27.466Z,67.27
2018-12-18T10:10:56.663Z,67.86
2018-12-18T10:13:25.910Z,67.96
2018-12-18T10:15:55.193Z,68.03
2018-12-18T10:18:24.381Z,67.20
2018-12-18T10:20:53.592Z,66.31
2018-12-18T10:23:22.892Z,65.93
2018-12-18T10:25:52.099Z,64.63
2018-12-18T10:28:21.428Z,65.13
2018-12-18T10:30:50.612Z,65.55
2018-12-18T10:33:19.881Z,65.27
2018-12-18T10:35:49.086Z,66.32
2018-12-18T10:38:18.338Z,64.74
2018-12-18T10:40:47.623Z,64.55
2018-12-18T10:43:16.851Z,64.82
2018-12-18T10:45:46.070Z,64.62
2018-12-18T10:48:15.296Z,65.97
2018-12-18T10:50:44.573Z,64.33
2018-12-18T10:53:13.779Z,64.77
2018-12-18T10:55:43.033Z,64.58
2018-12-18T10:58:12.276Z,64.72
2018-12-18T11:00:47.611Z,66.58
2018-12-18T11:03:17.908Z,67.96
2018-12-18T11:05:48.082Z,66.35
2018-12-18T11:08:18.526Z,67.41
2018-12-18T11:10:48.841Z,69.35
2018-12-18T11:13:19.675Z,68.36
2018-12-18T11:15:50.715Z,68.65
2018-12-18T11:18:21.078Z,67.75
2018-12-18T11:20:51.672Z,66.17
2018-12-18T11:23:20.913Z,65.67
2018-12-18T11:25:50.194Z,66.11
2018-12-18T11:28:19.379Z,65.65
2018-12-18T11:30:48.589Z,64.45
2018-12-18T11:33:17.773Z,63.68
2018-12-18T11:35:47.054Z,63.53
2018-12-18T11:38:16.278Z,63.49
2018-12-18T11:40:45.662Z,63.67
2018-12-18T11:43:14.868Z,62.10
2018-12-18T11:45:44.118Z,62.96
2018-12-18T11:48:13.331Z,66.02
2018-12-18T11:50:42.536Z,67.35
2018-12-18T11:53:11.815Z,67.54
2018-12-18T11:55:41.054Z,67.22
2018-12-18T11:58:10.440Z,68.30
2018-12-18T12:00:39.745Z,67.52
2018-12-18T12:03:09.268Z,67.37
2018-12-18T12:05:38.534Z,67.27
2018-12-18T12:08:08.102Z,67.86
2018-12-18T12:10:37.361Z,66.82
2018-12-18T12:13:06.626Z,66.84
2018-12-18T12:15:35.846Z,66.07
2018-12-18T12:18:05.077Z,67.50
2018-12-18T12:20:34.345Z,67.74
2018-12-18T12:23:03.553Z,66.97
2018-12-18T12:25:32.839Z,67.60
2018-12-18T12:28:06.305Z,66.95
2018-12-18T12:30:35.850Z,67.12
2018-12-18T12:33:05.106Z,66.35
2018-12-18T12:35:34.301Z,67.36
2018-12-18T12:38:03.524Z,65.64
2018-12-18T12:40:32.785Z,65.51
2018-12-18T12:43:02.061Z,65.68
2018-12-18T12:45:31.314Z,66.60
2018-12-18T12:48:00.769Z,65.88
2018-12-18T12:50:30.083Z,65.45
2018-12-18T12:52:59.502Z,65.89
2018-12-18T12:55:28.705Z,66.21
2018-12-18T12:57:58.001Z,65.80
2018-12-18T13:00:27.301Z,66.35
2018-12-18T13:02:56.568Z,66.38
2018-12-18T13:05:25.902Z,65.92
2018-12-18T13:07:56.223Z,66.29
2018-12-18T13:10:24.472Z,66.35
2018-12-18T13:12:53.773Z,66.45
2018-12-18T13:15:23.028Z,66.62
2018-12-18T13:17:52.271Z,66.13
2018-12-18T13:20:21.509Z,66.76
2018-12-18T13:22:50.747Z,66.44
2018-12-18T13:25:20.890Z,66.61
2018-12-18T13:27:50.155Z,66.79
2018-12-18T13:30:19.354Z,66.80
2018-12-18T13:32:48.591Z,66.57
2018-12-18T13:35:17.791Z,66.47
2018-12-18T13:37:47.043Z,66.90
2018-12-18T13:40:16.291Z,65.81
2018-12-18T13:42:45.519Z,65.70
2018-12-18T13:45:14.825Z,66.31
2018-12-18T13:47:44.088Z,66.60
2018-12-18T13:50:13.311Z,66.63
2018-12-18T13:52:42.514Z,66.93
2018-12-18T13:55:12.185Z,67.01
2018-12-18T13:57:41.446Z,67.48
2018-12-18T14:00:11.429Z,66.60
2018-12-18T14:02:40.690Z,67.03
2018-12-18T14:05:10.611Z,66.98
2018-12-18T14:07:39.845Z,67.21
2018-12-18T14:10:09.418Z,67.55
2018-12-18T14:12:38.736Z,66.76
2018-12-18T14:15:08.167Z,67.26
2018-12-18T14:17:37.426Z,66.91
2018-12-18T14:20:06.899Z,67.45
2018-12-18T14:22:36.113Z,67.59
2018-12-18T14:25:05.429Z,67.58
2018-12-18T14:27:34.714Z,67.41
2018-12-18T14:30:04.067Z,68.17
2018-12-18T14:32:33.290Z,68.09
2018-12-18T14:35:02.467Z,68.11
2018-12-18T14:37:31.691Z,68.45
2018-12-18T14:40:00.854Z,67.81
2018-12-18T14:42:30.062Z,68.17
2018-12-18T14:44:59.301Z,68.51
2018-12-18T14:47:28.589Z,68.83
2018-12-18T14:49:58.234Z,68.79
2018-12-18T14:52:27.012Z,68.71
2018-12-18T14:54:56.277Z,69.02
2018-12-18T14:57:25.474Z,68.99
2018-12-18T14:59:54.744Z,69.06
2018-12-18T15:02:23.938Z,69.23
2018-12-18T15:04:53.150Z,69.51
2018-12-18T15:07:22.400Z,69.11
2018-12-18T15:09:51.667Z,69.52
2018-12-18T15:12:20.888Z,69.50
2018-12-18T15:14:50.104Z,69.36
2018-12-18T15:17:19.366Z,69.67
2018-12-18T15:19:48.867Z,69.99
2018-12-18T15:22:18.051Z,70.04
2018-12-18T15:24:47.309Z,69.50
2018-12-18T15:27:16.615Z,70.00
2018-12-18T15:29:45.866Z,69.71
2018-12-18T15:32:15.071Z,69.73
2018-12-18T15:34:44.329Z,69.39
2018-12-18T15:37:13.641Z,69.86
2018-12-18T15:39:42.889Z,70.21
2018-12-18T15:42:12.068Z,69.80
2018-12-18T15:44:41.325Z,70.62
2018-12-18T15:47:10.795Z,70.15
2018-12-18T15:49:40.062Z,70.34
2018-12-18T15:52:09.683Z,70.88
2018-12-18T15:54:39.692Z,70.39
2018-12-18T15:57:09.255Z,70.63
2018-12-18T15:59:38.433Z,71.03
2018-12-18T16:02:07.608Z,70.58
2018-12-18T16:04:36.860Z,70.58
2018-12-18T16:07:06.081Z,70.90
2018-12-18T16:09:35.419Z,71.09
2018-12-18T16:12:04.661Z,70.89
2018-12-18T16:14:33.866Z,71.34
2018-12-18T16:17:03.120Z,71.31
2018-12-18T16:19:32.452Z,71.53
2018-12-18T16:22:01.724Z,71.61
2018-12-18T16:24:31.079Z,71.11
2018-12-18T16:27:00.277Z,70.66
2018-12-18T16:29:29.523Z,71.63
2018-12-18T16:35:09.886Z,71.69
2018-12-18T16:37:38.303Z,71.82
2018-12-18T16:40:06.888Z,71.86
2018-12-18T16:42:35.229Z,72.07
2018-12-18T16:45:03.707Z,72.39
2018-12-18T16:47:32.115Z,72.34
2018-12-18T16:50:00.411Z,72.45
2018-12-18T16:52:28.754Z,72.62
2018-12-18T16:54:57.068Z,72.97
2018-12-18T16:57:25.437Z,72.80
2018-12-18T16:59:53.789Z,72.67
2018-12-18T17:02:22.314Z,72.54
2018-12-18T17:04:50.635Z,72.02
2018-12-18T17:07:18.996Z,72.18
2018-12-18T17:09:47.341Z,72.22
2018-12-18T17:12:15.699Z,72.24
2018-12-18T17:14:44.090Z,72.68
2018-12-18T17:17:12.645Z,72.40
2018-12-18T17:19:40.958Z,72.97
2018-12-18T17:22:09.339Z,73.33
2018-12-18T17:24:37.757Z,73.06
2018-12-18T17:27:06.091Z,72.97
2018-12-18T17:29:34.410Z,73.28
2018-12-18T17:32:02.755Z,73.20
2018-12-18T17:34:31.142Z,73.68
2018-12-18T17:37:00.458Z,73.40
2018-12-18T17:39:28.803Z,73.74
2018-12-18T17:41:57.143Z,73.65
2018-12-18T17:44:25.461Z,73.74
2018-12-18T17:46:53.828Z,73.63
2018-12-18T17:49:22.137Z,73.34
2018-12-18T17:51:50.490Z,73.77
2018-12-18T17:54:18.835Z,73.89
2018-12-18T17:56:47.237Z,73.83
2018-12-18T17:59:15.593Z,74.19
2018-12-18T18:01:44.089Z,73.89
2018-12-18T18:04:12.408Z,74.30
2018-12-18T18:06:40.797Z,74.13
2018-12-18T18:09:09.236Z,74.20
2018-12-18T18:11:37.555Z,74.20
2018-12-18T18:14:05.926Z,74.33
2018-12-18T18:16:34.265Z,74.22
2018-12-18T18:19:02.621Z,74.95
2018-12-18T18:21:30.966Z,74.80
2018-12-18T18:26:36.628Z,75.27
2018-12-18T18:29:04.973Z,74.79
2018-12-18T18:31:33.330Z,74.20
2018-12-18T18:34:01.724Z,74.04
2018-12-18T18:36:30.082Z,74.56
2018-12-18T18:38:58.390Z,74.43
2018-12-18T18:41:26.770Z,74.49
2018-12-18T18:43:55.122Z,74.51
2018-12-18T18:46:23.452Z,75.03
2018-12-18T18:48:51.882Z,74.33
2018-12-18T18:51:20.537Z,74.25
2018-12-18T18:53:49.695Z,73.91
2018-12-18T18:56:18.096Z,74.23
2018-12-18T18:58:46.441Z,74.29
2018-12-18T19:01:15.197Z,73.82
2018-12-18T19:03:43.554Z,73.95
2018-12-18T19:06:12.042Z,74.04
2018-12-18T19:08:40.441Z,74.17
2018-12-18T19:11:08.814Z,73.76
2018-12-18T19:13:37.184Z,73.70
2018-12-18T19:16:05.533Z,73.50
2018-12-18T19:18:33.934Z,73.31
2018-12-18T19:21:02.229Z,73.39
2018-12-18T19:23:30.599Z,73.16
2018-12-18T19:25:58.942Z,73.48
2018-12-18T19:28:27.255Z,73.28
2018-12-18T19:30:55.637Z,73.17
2018-12-18T19:33:23.985Z,72.83
2018-12-18T19:35:52.796Z,72.36
2018-12-18T19:38:21.344Z,71.98
2018-12-18T19:40:49.721Z,71.91
2018-12-18T19:43:18.071Z,72.08
2018-12-18T19:45:46.591Z,71.36
2018-12-18T19:48:14.993Z,70.99
2018-12-18T19:50:43.315Z,70.42
2018-12-18T19:53:11.657Z,70.23
2018-12-18T19:55:40.084Z,69.52
2018-12-18T19:58:08.428Z,69.47
2018-12-18T20:00:36.788Z,69.50
2018-12-18T20:03:05.998Z,69.47
2018-12-18T20:05:34.321Z,69.55
2018-12-18T20:08:02.725Z,69.52
2018-12-18T20:10:31.055Z,69.53
2018-12-18T20:13:01.334Z,69.96
2018-12-18T20:15:29.681Z,69.94
2018-12-18T20:17:58.013Z,69.92
2018-12-18T20:20:27.182Z,70.24
2018-12-18T20:22:55.530Z,69.93
2018-12-18T20:25:23.869Z,70.21
2018-12-18T20:27:52.227Z,70.12
2018-12-18T20:30:20.588Z,70.19
2018-12-18T20:32:48.937Z,70.09
2018-12-18T20:35:17.606Z,70.18
2018-12-18T20:37:46.066Z,70.52
2018-12-18T20:40:16.248Z,70.27
2018-12-18T20:42:44.649Z,70.39
2018-12-18T20:45:13.478Z,70.22
2018-12-18T20:47:41.807Z,70.65
2018-12-18T20:50:10.172Z,70.62
2018-12-18T20:52:38.539Z,70.92
2018-12-18T20:55:07.021Z,71.06
2018-12-18T20:57:35.419Z,70.96
2018-12-18T21:00:06.020Z,70.76
2018-12-18T21:02:34.531Z,70.55
2018-12-18T21:05:04.340Z,71.28
2018-12-18T21:07:32.715Z,71.32
2018-12-18T21:10:01.043Z,71.06
2018-12-18T21:12:29.395Z,70.97
2018-12-18T21:15:00.683Z,71.69
2018-12-18T21:17:28.146Z,72.03
2018-12-18T21:19:56.484Z,71.62
2018-12-18T21:22:25.508Z,71.75
2018-12-18T21:24:53.842Z,71.58
2018-12-18T21:27:22.177Z,72.04
2018-12-18T21:29:50.515Z,72.04
2018-12-18T21:32:18.865Z,72.42
2018-12-18T21:34:47.219Z,72.30
2018-12-18T21:37:15.871Z,72.61
2018-12-18T21:39:44.237Z,72.30
2018-12-18T21:42:12.613Z,72.55
2018-12-18T21:44:41.016Z,72.61
2018-12-18T21:47:09.359Z,72.95
2018-12-18T21:49:37.709Z,72.45
2018-12-18T21:52:06.078Z,73.07
2018-12-18T21:54:34.631Z,72.91
2018-12-18T21:57:03.134Z,72.87
2018-12-18T21:59:31.675Z,73.33
2018-12-18T22:02:00.313Z,73.12
2018-12-18T22:04:28.659Z,73.19
2018-12-18T22:06:57.856Z,73.29
2018-12-18T22:09:26.230Z,73.19
2018-12-18T22:11:54.617Z,73.06
2018-12-18T22:14:23.475Z,73.06
2018-12-18T22:16:51.808Z,73.10
2018-12-18T22:19:20.296Z,73.35
2018-12-18T22:21:48.726Z,72.88
2018-12-18T22:24:17.213Z,72.94
2018-12-18T22:26:46.201Z,73.19
2018-12-18T22:29:15.021Z,72.82
2018-12-18T22:31:43.508Z,72.85
2018-12-18T22:34:11.902Z,73.09
2018-12-18T22:36:40.230Z,73.23
2018-12-18T22:39:09.735Z,73.19
2018-12-18T22:41:38.100Z,72.96
2018-12-18T22:44:06.592Z,72.97
2018-12-18T22:46:34.937Z,73.30
2018-12-18T22:49:03.292Z,73.47
2018-12-18T22:51:31.657Z,73.60
2018-12-18T22:54:00.043Z,72.97
2018-12-18T22:56:28.396Z,73.09
2018-12-18T22:58:56.758Z,72.91
2018-12-18T23:01:29.450Z,73.16
2018-12-18T23:03:59.262Z,73.49
2018-12-18T23:06:27.641Z,73.26
2018-12-18T23:08:55.980Z,73.37
2018-12-18T23:11:24.318Z,72.94
2018-12-18T23:13:52.648Z,73.04
2018-12-18T23:16:20.998Z,73.30
2018-12-18T23:18:49.325Z,73.42
2018-12-18T23:21:17.700Z,73.25
2018-12-18T23:23:46.025Z,73.00
2018-12-18T23:26:14.690Z,73.03
2018-12-18T23:28:43.036Z,73.42
2018-12-18T23:31:11.409Z,73.52
2018-12-18T23:33:39.751Z,73.86
2018-12-18T23:36:08.494Z,73.91
2018-12-18T23:38:37.008Z,73.29
2018-12-18T23:41:05.453Z,73.23
2018-12-18T23:43:33.793Z,73.63
2018-12-18T23:46:02.172Z,73.59
2018-12-18T23:48:30.713Z,73.11
2018-12-18T23:50:59.057Z,73.10
2018-12-18T23:53:27.554Z,73.25
2018-12-18T23:55:56.093Z,73.06
2018-12-18T23:58:25.041Z,72.98
